sensor_id;sensor_type;location;lat;lon;timestamp;noise_LAeq;noise_LA_min;noise_LA_max;noise_LA01;noise_LA95
69620;Laerm;57654;51.434;5.984;2023-12-20T00:00:02;30.85;28.93;36.39;;
69620;Laerm;57654;51.434;5.984;2023-12-20T00:00:13;30.74;28.64;35.10;;
69620;Laerm;57654;51.434;5.984;2023-12-20T00:00:23;30.57;28.66;36.60;;
69620;Laerm;57654;51.434;5.984;2023-12-20T00:00:33;30.57;28.94;36.29;;
69620;Laerm;57654;51.434;5.984;2023-12-20T00:00:43;30.60;28.86;34.08;;
69620;Laerm;57654;51.434;5.984;2023-12-20T00:00:53;30.64;28.97;35.30;;
69620;Laerm;57654;51.434;5.984;2023-12-20T00:01:04;30.51;28.49;36.09;;
69620;Laerm;57654;51.434;5.984;2023-12-20T00:01:14;30.63;28.82;36.29;;
69620;Laerm;57654;51.434;5.984;2023-12-20T00:01:24;31.46;29.00;44.33;;
69620;Laerm;57654;51.434;5.984;2023-12-20T00:01:34;30.88;28.77;37.23;;
69620;Laerm;57654;51.434;5.984;2023-12-20T00:01:45;30.77;28.75;35.39;;
69620;Laerm;57654;51.434;5.984;2023-12-20T00:01:55;30.70;28.56;36.82;;
69620;Laerm;57654;51.434;5.984;2023-12-20T00:02:05;30.48;28.83;33.69;;
69620;Laerm;57654;51.434;5.984;2023-12-20T00:02:15;31.19;28.96;41.21;;
69620;Laerm;57654;51.434;5.984;2023-12-20T00:02:26;31.08;29.38;38.13;;
69620;Laerm;57654;51.434;5.984;2023-12-20T00:02:36;32.00;29.95;35.83;;
69620;Laerm;57654;51.434;5.984;2023-12-20T00:02:46;32.46;29.99;40.03;;
69620;Laerm;57654;51.434;5.984;2023-12-20T00:02:57;31.47;29.41;35.14;;
69620;Laerm;57654;51.434;5.984;2023-12-20T00:03:07;30.76;28.94;38.76;;
69620;Laerm;57654;51.434;5.984;2023-12-20T00:03:17;30.79;28.91;35.28;;
69620;Laerm;57654;51.434;5.984;2023-12-20T00:03:27;30.87;28.85;42.94;;
69620;Laerm;57654;51.434;5.984;2023-12-20T00:03:37;30.57;28.79;35.66;;
69620;Laerm;57654;51.434;5.984;2023-12-20T00:03:48;30.62;28.75;33.85;;
69620;Laerm;57654;51.434;5.984;2023-12-20T00:03:58;30.79;28.70;36.83;;
69620;Laerm;57654;51.434;5.984;2023-12-20T00:04:08;30.85;28.71;37.36;;
69620;Laerm;57654;51.434;5.984;2023-12-20T00:04:18;30.67;28.73;38.70;;
69620;Laerm;57654;51.434;5.984;2023-12-20T00:04:28;30.49;28.62;35.56;;
69620;Laerm;57654;51.434;5.984;2023-12-20T00:04:39;30.56;28.71;36.49;;
69620;Laerm;57654;51.434;5.984;2023-12-20T00:04:49;32.59;28.35;52.83;;
69620;Laerm;57654;51.434;5.984;2023-12-20T00:04:59;30.90;28.72;40.15;;
69620;Laerm;57654;51.434;5.984;2023-12-20T00:05:10;30.58;28.73;35.53;;
69620;Laerm;57654;51.434;5.984;2023-12-20T00:05:20;30.65;28.72;35.57;;
69620;Laerm;57654;51.434;5.984;2023-12-20T00:05:30;30.38;28.51;35.33;;
69620;Laerm;57654;51.434;5.984;2023-12-20T00:05:44;30.59;28.77;37.79;;
69620;Laerm;57654;51.434;5.984;2023-12-20T00:05:54;30.85;28.81;35.74;;
69620;Laerm;57654;51.434;5.984;2023-12-20T00:06:05;31.82;28.98;40.57;;
69620;Laerm;57654;51.434;5.984;2023-12-20T00:06:15;32.03;28.81;47.25;;
69620;Laerm;57654;51.434;5.984;2023-12-20T00:06:25;30.99;28.99;37.68;;
69620;Laerm;57654;51.434;5.984;2023-12-20T00:06:36;30.74;28.80;36.28;;
69620;Laerm;57654;51.434;5.984;2023-12-20T00:06:46;30.94;28.93;40.72;;
69620;Laerm;57654;51.434;5.984;2023-12-20T00:06:56;30.91;28.90;42.85;;
69620;Laerm;57654;51.434;5.984;2023-12-20T00:07:06;31.14;28.71;45.37;;
69620;Laerm;57654;51.434;5.984;2023-12-20T00:07:17;30.83;28.46;41.70;;
69620;Laerm;57654;51.434;5.984;2023-12-20T00:07:27;30.72;28.75;33.87;;
69620;Laerm;57654;51.434;5.984;2023-12-20T00:07:37;30.66;28.40;35.30;;
69620;Laerm;57654;51.434;5.984;2023-12-20T00:07:47;31.00;29.14;34.72;;
69620;Laerm;57654;51.434;5.984;2023-12-20T00:07:58;31.08;29.26;36.43;;
69620;Laerm;57654;51.434;5.984;2023-12-20T00:08:08;31.17;29.31;34.57;;
69620;Laerm;57654;51.434;5.984;2023-12-20T00:08:18;30.88;29.19;35.11;;
69620;Laerm;57654;51.434;5.984;2023-12-20T00:08:28;30.94;28.83;35.58;;
69620;Laerm;57654;51.434;5.984;2023-12-20T00:08:38;31.05;28.93;36.49;;
69620;Laerm;57654;51.434;5.984;2023-12-20T00:08:49;30.77;28.80;35.28;;
69620;Laerm;57654;51.434;5.984;2023-12-20T00:08:59;30.72;28.87;35.93;;
69620;Laerm;57654;51.434;5.984;2023-12-20T00:09:09;30.87;28.99;33.61;;
69620;Laerm;57654;51.434;5.984;2023-12-20T00:09:19;31.44;29.53;36.85;;
69620;Laerm;57654;51.434;5.984;2023-12-20T00:09:30;31.31;29.44;38.10;;
69620;Laerm;57654;51.434;5.984;2023-12-20T00:09:40;31.00;28.88;37.06;;
69620;Laerm;57654;51.434;5.984;2023-12-20T00:09:50;30.94;29.08;39.64;;
69620;Laerm;57654;51.434;5.984;2023-12-20T00:10:00;30.78;28.92;38.77;;
69620;Laerm;57654;51.434;5.984;2023-12-20T00:10:10;30.83;28.68;36.25;;
69620;Laerm;57654;51.434;5.984;2023-12-20T00:10:22;30.62;28.61;34.44;;
69620;Laerm;57654;51.434;5.984;2023-12-20T00:10:33;30.66;28.75;39.07;;
69620;Laerm;57654;51.434;5.984;2023-12-20T00:10:43;30.99;29.06;37.76;;
69620;Laerm;57654;51.434;5.984;2023-12-20T00:10:54;30.79;28.96;34.69;;
69620;Laerm;57654;51.434;5.984;2023-12-20T00:11:04;31.39;29.03;36.71;;
69620;Laerm;57654;51.434;5.984;2023-12-20T00:11:14;31.33;29.54;35.91;;
69620;Laerm;57654;51.434;5.984;2023-12-20T00:11:24;31.05;29.20;34.94;;
69620;Laerm;57654;51.434;5.984;2023-12-20T00:11:35;30.96;29.25;36.26;;
69620;Laerm;57654;51.434;5.984;2023-12-20T00:11:45;30.78;28.70;39.71;;
69620;Laerm;57654;51.434;5.984;2023-12-20T00:11:56;30.54;28.74;37.62;;
69620;Laerm;57654;51.434;5.984;2023-12-20T00:12:07;30.65;29.07;36.41;;
69620;Laerm;57654;51.434;5.984;2023-12-20T00:12:17;30.60;28.84;34.91;;
69620;Laerm;57654;51.434;5.984;2023-12-20T00:12:27;30.63;28.76;34.75;;
69620;Laerm;57654;51.434;5.984;2023-12-20T00:12:37;30.55;28.78;35.72;;
69620;Laerm;57654;51.434;5.984;2023-12-20T00:12:48;30.91;28.97;37.15;;
69620;Laerm;57654;51.434;5.984;2023-12-20T00:12:58;30.94;29.07;35.10;;
69620;Laerm;57654;51.434;5.984;2023-12-20T00:13:08;32.16;29.10;49.45;;
69620;Laerm;57654;51.434;5.984;2023-12-20T00:13:19;30.82;29.05;35.73;;
69620;Laerm;57654;51.434;5.984;2023-12-20T00:13:29;31.10;29.10;41.16;;
69620;Laerm;57654;51.434;5.984;2023-12-20T00:13:39;31.04;29.26;36.72;;
69620;Laerm;57654;51.434;5.984;2023-12-20T00:13:49;31.29;29.16;40.98;;
69620;Laerm;57654;51.434;5.984;2023-12-20T00:13:59;30.78;28.90;36.75;;
69620;Laerm;57654;51.434;5.984;2023-12-20T00:14:10;30.84;29.08;35.23;;
69620;Laerm;57654;51.434;5.984;2023-12-20T00:14:20;31.14;29.09;43.15;;
69620;Laerm;57654;51.434;5.984;2023-12-20T00:14:30;30.85;29.03;37.97;;
69620;Laerm;57654;51.434;5.984;2023-12-20T00:14:40;31.18;29.25;35.87;;
69620;Laerm;57654;51.434;5.984;2023-12-20T00:14:51;32.44;30.08;38.16;;
69620;Laerm;57654;51.434;5.984;2023-12-20T00:15:01;33.11;31.08;37.42;;
69620;Laerm;57654;51.434;5.984;2023-12-20T00:15:11;33.35;31.51;36.99;;
69620;Laerm;57654;51.434;5.984;2023-12-20T00:15:21;32.29;30.26;37.59;;
69620;Laerm;57654;51.434;5.984;2023-12-20T00:15:32;31.21;29.44;35.88;;
69620;Laerm;57654;51.434;5.984;2023-12-20T00:15:42;31.17;29.45;36.25;;
69620;Laerm;57654;51.434;5.984;2023-12-20T00:15:52;30.98;28.89;36.58;;
69620;Laerm;57654;51.434;5.984;2023-12-20T00:16:03;30.88;29.20;34.14;;
69620;Laerm;57654;51.434;5.984;2023-12-20T00:16:13;30.98;29.14;37.05;;
69620;Laerm;57654;51.434;5.984;2023-12-20T00:16:23;30.81;28.91;38.42;;
69620;Laerm;57654;51.434;5.984;2023-12-20T00:16:34;30.92;28.78;39.00;;
69620;Laerm;57654;51.434;5.984;2023-12-20T00:16:44;30.87;29.14;36.50;;
69620;Laerm;57654;51.434;5.984;2023-12-20T00:16:54;31.45;29.82;35.80;;
69620;Laerm;57654;51.434;5.984;2023-12-20T00:17:04;31.73;29.88;36.75;;
69620;Laerm;57654;51.434;5.984;2023-12-20T00:17:14;31.70;30.01;36.20;;
69620;Laerm;57654;51.434;5.984;2023-12-20T00:17:25;31.64;29.65;37.13;;
69620;Laerm;57654;51.434;5.984;2023-12-20T00:17:35;31.56;29.40;37.13;;
69620;Laerm;57654;51.434;5.984;2023-12-20T00:17:45;31.04;28.95;38.46;;
69620;Laerm;57654;51.434;5.984;2023-12-20T00:17:56;31.03;28.72;37.74;;
69620;Laerm;57654;51.434;5.984;2023-12-20T00:18:06;30.81;29.10;36.06;;
69620;Laerm;57654;51.434;5.984;2023-12-20T00:18:17;31.21;29.19;37.67;;
69620;Laerm;57654;51.434;5.984;2023-12-20T00:18:27;31.33;29.27;37.37;;
69620;Laerm;57654;51.434;5.984;2023-12-20T00:18:37;31.33;29.12;35.43;;
69620;Laerm;57654;51.434;5.984;2023-12-20T00:18:47;30.97;29.37;34.53;;
69620;Laerm;57654;51.434;5.984;2023-12-20T00:18:58;30.98;28.93;35.58;;
69620;Laerm;57654;51.434;5.984;2023-12-20T00:19:08;30.75;28.71;38.94;;
69620;Laerm;57654;51.434;5.984;2023-12-20T00:19:18;30.48;28.51;35.80;;
69620;Laerm;57654;51.434;5.984;2023-12-20T00:19:28;30.61;28.74;35.87;;
69620;Laerm;57654;51.434;5.984;2023-12-20T00:19:39;31.01;29.16;36.63;;
69620;Laerm;57654;51.434;5.984;2023-12-20T00:19:49;30.97;29.10;36.29;;
69620;Laerm;57654;51.434;5.984;2023-12-20T00:19:59;32.18;28.89;51.20;;
69620;Laerm;57654;51.434;5.984;2023-12-20T00:20:10;30.59;28.55;36.65;;
69620;Laerm;57654;51.434;5.984;2023-12-20T00:20:20;30.88;29.04;36.65;;
69620;Laerm;57654;51.434;5.984;2023-12-20T00:20:30;31.35;29.44;35.56;;
69620;Laerm;57654;51.434;5.984;2023-12-20T00:20:40;31.52;29.76;37.81;;
69620;Laerm;57654;51.434;5.984;2023-12-20T00:20:50;31.75;29.49;44.68;;
69620;Laerm;57654;51.434;5.984;2023-12-20T00:21:01;31.13;29.10;38.26;;
69620;Laerm;57654;51.434;5.984;2023-12-20T00:21:11;31.20;29.53;34.92;;
69620;Laerm;57654;51.434;5.984;2023-12-20T00:21:21;31.36;29.51;35.83;;
69620;Laerm;57654;51.434;5.984;2023-12-20T00:21:32;31.67;29.74;38.48;;
69620;Laerm;57654;51.434;5.984;2023-12-20T00:21:42;31.74;29.80;36.05;;
69620;Laerm;57654;51.434;5.984;2023-12-20T00:21:52;33.06;30.72;36.35;;
69620;Laerm;57654;51.434;5.984;2023-12-20T00:22:02;31.91;29.38;36.73;;
69620;Laerm;57654;51.434;5.984;2023-12-20T00:22:13;30.59;29.08;37.12;;
69620;Laerm;57654;51.434;5.984;2023-12-20T00:22:23;30.90;28.94;39.85;;
69620;Laerm;57654;51.434;5.984;2023-12-20T00:22:33;30.65;28.99;35.07;;
69620;Laerm;57654;51.434;5.984;2023-12-20T00:22:43;30.97;28.95;39.62;;
69620;Laerm;57654;51.434;5.984;2023-12-20T00:22:55;30.61;28.93;36.06;;
69620;Laerm;57654;51.434;5.984;2023-12-20T00:23:06;30.98;29.12;36.87;;
69620;Laerm;57654;51.434;5.984;2023-12-20T00:23:17;31.18;29.42;37.87;;
69620;Laerm;57654;51.434;5.984;2023-12-20T00:23:28;31.37;29.59;36.89;;
69620;Laerm;57654;51.434;5.984;2023-12-20T00:23:38;32.07;30.17;36.41;;
69620;Laerm;57654;51.434;5.984;2023-12-20T00:23:48;32.05;30.44;36.75;;
69620;Laerm;57654;51.434;5.984;2023-12-20T00:23:58;32.32;30.48;35.92;;
69620;Laerm;57654;51.434;5.984;2023-12-20T00:24:08;31.88;30.13;37.39;;
69620;Laerm;57654;51.434;5.984;2023-12-20T00:24:19;31.36;29.39;36.79;;
69620;Laerm;57654;51.434;5.984;2023-12-20T00:24:30;31.18;29.50;36.55;;
69620;Laerm;57654;51.434;5.984;2023-12-20T00:24:40;31.30;29.80;34.23;;
69620;Laerm;57654;51.434;5.984;2023-12-20T00:24:50;31.14;29.29;37.82;;
69620;Laerm;57654;51.434;5.984;2023-12-20T00:25:01;31.20;29.33;37.67;;
69620;Laerm;57654;51.434;5.984;2023-12-20T00:25:11;31.02;28.97;36.41;;
69620;Laerm;57654;51.434;5.984;2023-12-20T00:25:21;30.61;28.83;33.92;;
69620;Laerm;57654;51.434;5.984;2023-12-20T00:25:31;30.85;29.19;34.99;;
69620;Laerm;57654;51.434;5.984;2023-12-20T00:25:42;30.81;29.20;35.08;;
69620;Laerm;57654;51.434;5.984;2023-12-20T00:25:52;31.11;29.31;43.01;;
69620;Laerm;57654;51.434;5.984;2023-12-20T00:26:02;31.17;29.35;36.81;;
69620;Laerm;57654;51.434;5.984;2023-12-20T00:26:12;31.13;29.05;41.90;;
69620;Laerm;57654;51.434;5.984;2023-12-20T00:26:23;30.65;28.75;37.23;;
69620;Laerm;57654;51.434;5.984;2023-12-20T00:26:33;33.26;29.36;42.58;;
69620;Laerm;57654;51.434;5.984;2023-12-20T00:26:44;35.64;30.43;42.21;;
69620;Laerm;57654;51.434;5.984;2023-12-20T00:26:54;31.63;29.37;40.38;;
69620;Laerm;57654;51.434;5.984;2023-12-20T00:27:04;31.70;29.76;35.67;;
69620;Laerm;57654;51.434;5.984;2023-12-20T00:27:14;31.02;28.88;35.52;;
69620;Laerm;57654;51.434;5.984;2023-12-20T00:27:25;31.03;29.11;40.21;;
69620;Laerm;57654;51.434;5.984;2023-12-20T00:27:35;30.67;28.84;36.77;;
69620;Laerm;57654;51.434;5.984;2023-12-20T00:27:45;31.18;28.90;36.46;;
69620;Laerm;57654;51.434;5.984;2023-12-20T00:27:55;31.00;29.55;35.99;;
69620;Laerm;57654;51.434;5.984;2023-12-20T00:28:06;31.22;29.26;36.33;;
69620;Laerm;57654;51.434;5.984;2023-12-20T00:28:16;31.40;29.21;35.81;;
69620;Laerm;57654;51.434;5.984;2023-12-20T00:28:26;31.68;29.89;35.87;;
69620;Laerm;57654;51.434;5.984;2023-12-20T00:28:37;31.91;29.81;40.48;;
69620;Laerm;57654;51.434;5.984;2023-12-20T00:28:47;31.00;29.23;35.65;;
69620;Laerm;57654;51.434;5.984;2023-12-20T00:28:58;31.16;29.05;40.14;;
69620;Laerm;57654;51.434;5.984;2023-12-20T00:29:08;31.24;29.58;35.66;;
69620;Laerm;57654;51.434;5.984;2023-12-20T00:29:18;30.92;29.20;35.40;;
69620;Laerm;57654;51.434;5.984;2023-12-20T00:29:28;30.81;28.90;37.57;;
69620;Laerm;57654;51.434;5.984;2023-12-20T00:29:38;30.80;28.81;38.13;;
69620;Laerm;57654;51.434;5.984;2023-12-20T00:29:49;30.79;28.89;37.88;;
69620;Laerm;57654;51.434;5.984;2023-12-20T00:30:00;30.94;29.23;35.13;;
69620;Laerm;57654;51.434;5.984;2023-12-20T00:30:10;31.32;29.40;36.69;;
69620;Laerm;57654;51.434;5.984;2023-12-20T00:30:20;31.10;29.33;35.15;;
69620;Laerm;57654;51.434;5.984;2023-12-20T00:30:31;31.20;29.23;38.13;;
69620;Laerm;57654;51.434;5.984;2023-12-20T00:30:41;31.18;29.12;37.36;;
69620;Laerm;57654;51.434;5.984;2023-12-20T00:30:51;30.86;28.99;33.94;;
69620;Laerm;57654;51.434;5.984;2023-12-20T00:31:01;30.95;29.19;35.32;;
69620;Laerm;57654;51.434;5.984;2023-12-20T00:31:12;31.18;29.02;36.09;;
69620;Laerm;57654;51.434;5.984;2023-12-20T00:31:22;31.05;29.02;37.38;;
69620;Laerm;57654;51.434;5.984;2023-12-20T00:31:32;30.97;29.20;38.20;;
69620;Laerm;57654;51.434;5.984;2023-12-20T00:31:42;30.81;29.26;34.18;;
69620;Laerm;57654;51.434;5.984;2023-12-20T00:31:52;31.24;29.63;36.12;;
69620;Laerm;57654;51.434;5.984;2023-12-20T00:32:03;31.15;28.81;35.59;;
69620;Laerm;57654;51.434;5.984;2023-12-20T00:32:14;30.51;28.62;39.23;;
69620;Laerm;57654;51.434;5.984;2023-12-20T00:32:24;30.47;28.74;35.54;;
69620;Laerm;57654;51.434;5.984;2023-12-20T00:32:35;30.58;28.71;37.78;;
69620;Laerm;57654;51.434;5.984;2023-12-20T00:32:45;30.83;28.97;35.88;;
69620;Laerm;57654;51.434;5.984;2023-12-20T00:32:58;31.16;29.23;41.19;;
69620;Laerm;57654;51.434;5.984;2023-12-20T00:33:09;31.26;29.74;34.89;;
69620;Laerm;57654;51.434;5.984;2023-12-20T00:33:19;30.80;28.99;40.64;;
69620;Laerm;57654;51.434;5.984;2023-12-20T00:33:29;30.66;28.74;33.96;;
69620;Laerm;57654;51.434;5.984;2023-12-20T00:33:39;30.39;28.82;33.54;;
69620;Laerm;57654;51.434;5.984;2023-12-20T00:33:53;31.39;29.15;36.09;;
69620;Laerm;57654;51.434;5.984;2023-12-20T00:34:04;31.28;29.19;37.63;;
69620;Laerm;57654;51.434;5.984;2023-12-20T00:34:14;30.87;28.90;36.54;;
69620;Laerm;57654;51.434;5.984;2023-12-20T00:34:24;30.81;28.68;37.30;;
69620;Laerm;57654;51.434;5.984;2023-12-20T00:34:35;30.66;29.04;34.94;;
69620;Laerm;57654;51.434;5.984;2023-12-20T00:34:45;30.95;29.08;35.72;;
69620;Laerm;57654;51.434;5.984;2023-12-20T00:34:55;31.29;29.34;35.54;;
69620;Laerm;57654;51.434;5.984;2023-12-20T00:35:05;31.30;29.29;36.37;;
69620;Laerm;57654;51.434;5.984;2023-12-20T00:35:16;30.93;28.93;37.71;;
69620;Laerm;57654;51.434;5.984;2023-12-20T00:35:26;30.63;29.02;34.81;;
69620;Laerm;57654;51.434;5.984;2023-12-20T00:35:36;30.51;28.87;35.45;;
69620;Laerm;57654;51.434;5.984;2023-12-20T00:35:46;30.46;28.57;35.56;;
69620;Laerm;57654;51.434;5.984;2023-12-20T00:35:57;31.48;29.53;34.99;;
69620;Laerm;57654;51.434;5.984;2023-12-20T00:36:07;32.21;29.90;42.66;;
69620;Laerm;57654;51.434;5.984;2023-12-20T00:36:17;31.65;29.55;35.96;;
69620;Laerm;57654;51.434;5.984;2023-12-20T00:36:27;31.88;29.82;35.31;;
69620;Laerm;57654;51.434;5.984;2023-12-20T00:36:38;31.76;29.60;37.06;;
69620;Laerm;57654;51.434;5.984;2023-12-20T00:36:48;31.05;29.29;34.74;;
69620;Laerm;57654;51.434;5.984;2023-12-20T00:36:58;30.92;28.93;34.82;;
69620;Laerm;57654;51.434;5.984;2023-12-20T00:37:08;30.66;28.71;34.55;;
69620;Laerm;57654;51.434;5.984;2023-12-20T00:37:19;30.64;28.90;36.47;;
69620;Laerm;57654;51.434;5.984;2023-12-20T00:37:29;30.71;28.72;35.72;;
69620;Laerm;57654;51.434;5.984;2023-12-20T00:37:39;30.79;28.88;37.60;;
69620;Laerm;57654;51.434;5.984;2023-12-20T00:37:49;30.76;28.60;34.42;;
69620;Laerm;57654;51.434;5.984;2023-12-20T00:37:59;32.66;29.52;37.85;;
69620;Laerm;57654;51.434;5.984;2023-12-20T00:38:10;47.89;35.29;51.90;;
69620;Laerm;57654;51.434;5.984;2023-12-20T00:38:21;50.32;47.41;53.90;;
69620;Laerm;57654;51.434;5.984;2023-12-20T00:38:31;50.81;47.66;54.41;;
69620;Laerm;57654;51.434;5.984;2023-12-20T00:38:42;44.10;38.21;50.36;;
69620;Laerm;57654;51.434;5.984;2023-12-20T00:38:52;36.53;32.36;40.91;;
69620;Laerm;57654;51.434;5.984;2023-12-20T00:39:02;32.63;30.28;37.54;;
69620;Laerm;57654;51.434;5.984;2023-12-20T00:39:13;32.03;30.07;38.88;;
69620;Laerm;57654;51.434;5.984;2023-12-20T00:39:23;31.23;29.42;35.89;;
69620;Laerm;57654;51.434;5.984;2023-12-20T00:39:34;31.26;29.42;38.04;;
69620;Laerm;57654;51.434;5.984;2023-12-20T00:39:44;31.40;29.38;39.10;;
69620;Laerm;57654;51.434;5.984;2023-12-20T00:39:54;31.06;29.26;35.20;;
69620;Laerm;57654;51.434;5.984;2023-12-20T00:40:05;31.08;28.90;35.58;;
69620;Laerm;57654;51.434;5.984;2023-12-20T00:40:15;30.63;28.77;35.01;;
69620;Laerm;57654;51.434;5.984;2023-12-20T00:40:26;30.54;28.81;34.99;;
69620;Laerm;57654;51.434;5.984;2023-12-20T00:40:36;30.77;28.99;33.66;;
69620;Laerm;57654;51.434;5.984;2023-12-20T00:40:46;30.75;28.89;35.49;;
69620;Laerm;57654;51.434;5.984;2023-12-20T00:40:56;30.99;28.94;36.59;;
69620;Laerm;57654;51.434;5.984;2023-12-20T00:41:06;31.14;29.32;35.72;;
69620;Laerm;57654;51.434;5.984;2023-12-20T00:41:17;31.06;29.30;36.00;;
69620;Laerm;57654;51.434;5.984;2023-12-20T00:41:27;30.76;28.82;35.84;;
69620;Laerm;57654;51.434;5.984;2023-12-20T00:41:37;31.00;28.97;36.52;;
69620;Laerm;57654;51.434;5.984;2023-12-20T00:41:47;30.67;28.99;36.42;;
69620;Laerm;57654;51.434;5.984;2023-12-20T00:41:57;30.70;28.70;37.22;;
69620;Laerm;57654;51.434;5.984;2023-12-20T00:42:08;30.78;28.94;34.86;;
69620;Laerm;57654;51.434;5.984;2023-12-20T00:42:18;30.67;28.51;35.93;;
69620;Laerm;57654;51.434;5.984;2023-12-20T00:42:28;30.75;28.99;34.96;;
69620;Laerm;57654;51.434;5.984;2023-12-20T00:42:38;31.02;28.89;38.16;;
69620;Laerm;57654;51.434;5.984;2023-12-20T00:42:48;30.63;28.76;35.47;;
69620;Laerm;57654;51.434;5.984;2023-12-20T00:42:59;30.62;28.83;35.03;;
69620;Laerm;57654;51.434;5.984;2023-12-20T00:43:09;31.01;28.87;36.44;;
69620;Laerm;57654;51.434;5.984;2023-12-20T00:43:19;31.35;29.32;38.09;;
69620;Laerm;57654;51.434;5.984;2023-12-20T00:43:29;31.85;30.17;35.69;;
69620;Laerm;57654;51.434;5.984;2023-12-20T00:43:40;31.88;29.46;42.87;;
69620;Laerm;57654;51.434;5.984;2023-12-20T00:43:50;31.04;29.11;36.85;;
69620;Laerm;57654;51.434;5.984;2023-12-20T00:44:00;30.95;28.91;36.91;;
69620;Laerm;57654;51.434;5.984;2023-12-20T00:44:10;30.72;28.45;34.29;;
69620;Laerm;57654;51.434;5.984;2023-12-20T00:44:21;31.03;29.11;35.76;;
69620;Laerm;57654;51.434;5.984;2023-12-20T00:44:31;30.71;28.87;35.16;;
69620;Laerm;57654;51.434;5.984;2023-12-20T00:44:41;30.50;28.65;34.51;;
69620;Laerm;57654;51.434;5.984;2023-12-20T00:44:51;30.92;28.80;35.72;;
69620;Laerm;57654;51.434;5.984;2023-12-20T00:45:02;30.91;28.74;36.99;;
69620;Laerm;57654;51.434;5.984;2023-12-20T00:45:14;30.75;28.71;38.39;;
69620;Laerm;57654;51.434;5.984;2023-12-20T00:45:24;30.76;28.87;35.41;;
69620;Laerm;57654;51.434;5.984;2023-12-20T00:45:35;30.65;28.74;35.50;;
69620;Laerm;57654;51.434;5.984;2023-12-20T00:45:45;30.82;28.85;39.70;;
69620;Laerm;57654;51.434;5.984;2023-12-20T00:45:55;30.59;28.77;35.41;;
69620;Laerm;57654;51.434;5.984;2023-12-20T00:46:05;30.84;28.78;37.19;;
69620;Laerm;57654;51.434;5.984;2023-12-20T00:46:16;31.21;28.84;35.28;;
69620;Laerm;57654;51.434;5.984;2023-12-20T00:46:26;31.32;29.40;35.67;;
69620;Laerm;57654;51.434;5.984;2023-12-20T00:46:36;31.73;29.62;38.99;;
69620;Laerm;57654;51.434;5.984;2023-12-20T00:46:46;31.58;28.97;36.58;;
69620;Laerm;57654;51.434;5.984;2023-12-20T00:46:57;31.42;29.00;39.60;;
69620;Laerm;57654;51.434;5.984;2023-12-20T00:47:07;31.93;29.54;39.56;;
69620;Laerm;57654;51.434;5.984;2023-12-20T00:47:17;34.11;31.53;41.92;;
69620;Laerm;57654;51.434;5.984;2023-12-20T00:47:27;44.12;34.88;50.96;;
69620;Laerm;57654;51.434;5.984;2023-12-20T00:47:38;52.19;46.27;55.82;;
69620;Laerm;57654;51.434;5.984;2023-12-20T00:47:48;52.48;48.46;55.68;;
69620;Laerm;57654;51.434;5.984;2023-12-20T00:47:58;42.85;31.10;50.94;;
69620;Laerm;57654;51.434;5.984;2023-12-20T00:48:09;31.38;29.23;36.43;;
69620;Laerm;57654;51.434;5.984;2023-12-20T00:48:19;30.89;28.82;37.27;;
69620;Laerm;57654;51.434;5.984;2023-12-20T00:48:29;30.82;28.65;38.06;;
69620;Laerm;57654;51.434;5.984;2023-12-20T00:48:41;30.47;28.63;35.69;;
69620;Laerm;57654;51.434;5.984;2023-12-20T00:48:52;30.83;28.80;36.48;;
69620;Laerm;57654;51.434;5.984;2023-12-20T00:49:02;30.72;28.81;36.52;;
69620;Laerm;57654;51.434;5.984;2023-12-20T00:49:12;30.77;28.68;36.50;;
69620;Laerm;57654;51.434;5.984;2023-12-20T00:49:23;31.07;28.71;39.62;;
69620;Laerm;57654;51.434;5.984;2023-12-20T00:49:33;30.57;28.53;34.30;;
69620;Laerm;57654;51.434;5.984;2023-12-20T00:49:43;30.54;28.56;35.36;;
69620;Laerm;57654;51.434;5.984;2023-12-20T00:49:53;30.70;28.78;35.18;;
69620;Laerm;57654;51.434;5.984;2023-12-20T00:50:04;30.40;28.54;34.32;;
69620;Laerm;57654;51.434;5.984;2023-12-20T00:50:14;30.56;28.86;34.28;;
69620;Laerm;57654;51.434;5.984;2023-12-20T00:50:24;30.68;28.83;34.45;;
69620;Laerm;57654;51.434;5.984;2023-12-20T00:50:35;30.52;28.82;34.22;;
69620;Laerm;57654;51.434;5.984;2023-12-20T00:50:45;30.60;28.74;34.85;;
69620;Laerm;57654;51.434;5.984;2023-12-20T00:50:55;30.64;28.63;38.34;;
69620;Laerm;57654;51.434;5.984;2023-12-20T00:51:06;31.04;28.69;42.22;;
69620;Laerm;57654;51.434;5.984;2023-12-20T00:51:16;30.59;28.75;34.00;;
69620;Laerm;57654;51.434;5.984;2023-12-20T00:51:26;30.89;28.91;37.92;;
69620;Laerm;57654;51.434;5.984;2023-12-20T00:51:36;30.67;28.74;34.67;;
69620;Laerm;57654;51.434;5.984;2023-12-20T00:51:47;31.23;28.72;44.41;;
69620;Laerm;57654;51.434;5.984;2023-12-20T00:51:58;30.70;28.58;37.75;;
69620;Laerm;57654;51.434;5.984;2023-12-20T00:52:08;30.66;28.64;36.52;;
69620;Laerm;57654;51.434;5.984;2023-12-20T00:52:18;30.46;28.69;37.99;;
69620;Laerm;57654;51.434;5.984;2023-12-20T00:52:28;30.47;28.80;34.78;;
69620;Laerm;57654;51.434;5.984;2023-12-20T00:52:39;30.77;28.73;37.22;;
69620;Laerm;57654;51.434;5.984;2023-12-20T00:52:49;31.11;28.99;41.23;;
69620;Laerm;57654;51.434;5.984;2023-12-20T00:52:59;32.17;28.74;47.51;;
69620;Laerm;57654;51.434;5.984;2023-12-20T00:53:09;30.53;28.80;34.66;;
69620;Laerm;57654;51.434;5.984;2023-12-20T00:53:19;31.47;28.81;42.53;;
69620;Laerm;57654;51.434;5.984;2023-12-20T00:53:30;30.72;28.61;36.87;;
69620;Laerm;57654;51.434;5.984;2023-12-20T00:53:40;30.77;29.12;33.64;;
69620;Laerm;57654;51.434;5.984;2023-12-20T00:53:50;30.82;28.79;39.51;;
69620;Laerm;57654;51.434;5.984;2023-12-20T00:54:04;30.47;28.30;35.10;;
69620;Laerm;57654;51.434;5.984;2023-12-20T00:54:14;30.38;28.76;33.97;;
69620;Laerm;57654;51.434;5.984;2023-12-20T00:54:25;30.38;28.37;38.39;;
69620;Laerm;57654;51.434;5.984;2023-12-20T00:54:35;30.46;28.55;36.92;;
69620;Laerm;57654;51.434;5.984;2023-12-20T00:54:45;30.48;28.88;34.00;;
69620;Laerm;57654;51.434;5.984;2023-12-20T00:54:56;30.21;28.41;36.34;;
69620;Laerm;57654;51.434;5.984;2023-12-20T00:55:06;30.29;28.74;36.28;;
69620;Laerm;57654;51.434;5.984;2023-12-20T00:55:16;30.62;28.74;36.63;;
69620;Laerm;57654;51.434;5.984;2023-12-20T00:55:27;30.78;28.90;38.70;;
69620;Laerm;57654;51.434;5.984;2023-12-20T00:55:37;30.36;28.40;34.14;;
69620;Laerm;57654;51.434;5.984;2023-12-20T00:55:47;30.60;28.57;42.63;;
69620;Laerm;57654;51.434;5.984;2023-12-20T00:55:57;30.52;28.41;35.40;;
69620;Laerm;57654;51.434;5.984;2023-12-20T00:56:08;30.54;28.48;38.04;;
69620;Laerm;57654;51.434;5.984;2023-12-20T00:56:19;32.56;28.75;53.29;;
69620;Laerm;57654;51.434;5.984;2023-12-20T00:56:29;30.61;28.87;34.08;;
69620;Laerm;57654;51.434;5.984;2023-12-20T00:56:39;30.84;28.89;36.04;;
69620;Laerm;57654;51.434;5.984;2023-12-20T00:56:49;30.64;28.55;36.08;;
69620;Laerm;57654;51.434;5.984;2023-12-20T00:57:00;30.50;28.82;34.69;;
69620;Laerm;57654;51.434;5.984;2023-12-20T00:57:10;30.68;28.71;34.80;;
69620;Laerm;57654;51.434;5.984;2023-12-20T00:57:21;30.82;28.69;38.35;;
69620;Laerm;57654;51.434;5.984;2023-12-20T00:57:31;30.54;28.77;36.37;;
69620;Laerm;57654;51.434;5.984;2023-12-20T00:57:41;30.65;28.56;39.43;;
69620;Laerm;57654;51.434;5.984;2023-12-20T00:57:51;30.95;28.86;38.25;;